createdAt,value
2016-06-17T00:00:08.916Z,95.4
2016-06-17T00:00:18.588Z,95.3
2016-06-17T00:00:28.916Z,95.4
2016-06-17T00:00:38.807Z,95.5
2016-06-17T00:00:48.885Z,95.4
2016-06-17T00:00:58.729Z,95.5
2016-06-17T00:01:08.748Z,95.3
2016-06-17T00:01:18.576Z,95.4
2016-06-17T00:01:28.873Z,95.9
2016-06-17T00:01:38.905Z,95
2016-06-17T00:01:48.717Z,94.9
2016-06-17T00:01:58.795Z,94.9
2016-06-17T00:02:08.876Z,95
2016-06-17T00:02:18.814Z,94.9
2016-06-17T00:02:28.751Z,95.2
2016-06-17T00:02:38.876Z,95.6
2016-06-17T00:02:48.876Z,95.4
2016-06-17T00:02:58.767Z,95
2016-06-17T00:03:08.864Z,95.6
2016-06-17T00:03:18.864Z,95.7
2016-06-17T00:03:28.864Z,95.9
2016-06-17T00:03:38.770Z,96.1
2016-06-17T00:03:48.864Z,95.7
2016-06-17T00:03:58.864Z,95.9
2016-06-17T00:04:08.852Z,95.7
2016-06-17T00:04:18.836Z,96.1
2016-06-17T00:04:28.883Z,95.6
2016-06-17T00:04:38.680Z,95.8
2016-06-17T00:04:48.868Z,95.8
2016-06-17T00:04:58.743Z,95.4
2016-06-17T00:05:08.684Z,95.5
2016-06-17T00:05:18.731Z,95.9
2016-06-17T00:05:28.825Z,95.4
2016-06-17T00:05:38.653Z,95.5
2016-06-17T00:05:48.809Z,95.3
2016-06-17T00:05:58.809Z,95.4
2016-06-17T00:06:08.812Z,95.6
2016-06-17T00:06:18.828Z,95.3
2016-06-17T00:06:28.656Z,95.4
2016-06-17T00:06:38.828Z,95.7
2016-06-17T00:06:48.781Z,95.2
2016-06-17T00:06:58.859Z,95.3
2016-06-17T00:07:08.800Z,95.7
2016-06-17T00:07:18.784Z,95.4
2016-06-17T00:07:28.628Z,95.4
2016-06-17T00:07:38.846Z,95.3
2016-06-17T00:07:48.784Z,95.5
2016-06-17T00:07:58.628Z,95.6
2016-06-17T00:08:08.757Z,95.6
2016-06-17T00:08:18.694Z,95.5
2016-06-17T00:08:28.772Z,95.7
2016-06-17T00:08:38.616Z,95.4
2016-06-17T00:08:48.757Z,95.5
2016-06-17T00:08:58.663Z,95.4
2016-06-17T00:09:08.775Z,95.3
2016-06-17T00:09:18.666Z,95.4
2016-06-17T00:09:28.744Z,95.4
2016-06-17T00:09:38.760Z,95.7
2016-06-17T00:09:48.744Z,95.8
2016-06-17T00:09:58.744Z,95.9
2016-06-17T00:10:08.607Z,96.5
2016-06-17T00:10:18.295Z,96
2016-06-17T00:10:28.732Z,96.2
2016-06-17T00:10:38.639Z,96.2
2016-06-17T00:10:48.748Z,96.1
2016-06-17T00:10:58.748Z,96.1
2016-06-17T00:11:08.564Z,96.4
2016-06-17T00:11:18.704Z,96.4
2016-06-17T00:11:28.704Z,95.8
2016-06-17T00:11:38.735Z,95.9
2016-06-17T00:11:48.595Z,95.8
2016-06-17T00:11:58.720Z,96
2016-06-17T00:12:08.693Z,96.2
2016-06-17T00:12:18.458Z,95.7
2016-06-17T00:12:28.552Z,95.9
2016-06-17T00:12:38.693Z,96.5
2016-06-17T00:12:48.708Z,96.3
2016-06-17T00:12:58.693Z,97
2016-06-17T00:13:08.539Z,96.6
2016-06-17T00:13:18.539Z,96.6
2016-06-17T00:13:28.680Z,97.1
2016-06-17T00:13:38.696Z,96.9
2016-06-17T00:13:48.680Z,96.9
2016-06-17T00:13:58.680Z,96.3
2016-06-17T00:14:08.667Z,96.3
2016-06-17T00:14:18.683Z,96.5
2016-06-17T00:14:28.714Z,95.8
2016-06-17T00:14:38.495Z,95.9
2016-06-17T00:14:48.683Z,95.9
2016-06-17T00:14:58.667Z,95.8
2016-06-17T00:15:08.656Z,96.2
2016-06-17T00:15:18.656Z,96.1
2016-06-17T00:15:28.656Z,96.6
2016-06-17T00:15:38.671Z,95.9
2016-06-17T00:15:48.640Z,96.2
2016-06-17T00:15:58.624Z,95.9
2016-06-17T00:16:08.503Z,96.6
2016-06-17T00:16:18.535Z,95.8
2016-06-17T00:16:28.660Z,95.9
2016-06-17T00:16:38.644Z,96
2016-06-17T00:16:48.332Z,96.2
2016-06-17T00:16:58.472Z,96.3
2016-06-17T00:17:08.663Z,96.4
2016-06-17T00:17:18.631Z,95.7
2016-06-17T00:17:28.460Z,95.8
2016-06-17T00:17:38.616Z,95.7
2016-06-17T00:17:48.460Z,95.8
2016-06-17T00:17:58.600Z,95.6
2016-06-17T00:18:08.634Z,95.5
2016-06-17T00:18:18.556Z,95.7
2016-06-17T00:18:28.619Z,96.4
2016-06-17T00:18:38.588Z,96.2
2016-06-17T00:18:48.603Z,95.7
2016-06-17T00:18:58.603Z,95.8
2016-06-17T00:19:08.701Z,95.9
2016-06-17T00:19:18.592Z,95.5
2016-06-17T00:19:28.592Z,95.8
2016-06-17T00:19:38.592Z,95.9
2016-06-17T00:19:48.435Z,95.9
2016-06-17T00:19:58.592Z,95.9
2016-06-17T00:20:08.470Z,96.5
2016-06-17T00:20:18.516Z,96.6
2016-06-17T00:20:28.251Z,96.5
2016-06-17T00:20:38.563Z,96.6
2016-06-17T00:20:48.548Z,95.7
2016-06-17T00:20:58.454Z,96.1
2016-06-17T00:21:08.395Z,95.6
2016-06-17T00:21:18.411Z,95.6
2016-06-17T00:21:28.395Z,95.6
2016-06-17T00:21:38.411Z,96.3
2016-06-17T00:21:48.442Z,96.1
2016-06-17T00:21:58.552Z,96
2016-06-17T00:22:08.539Z,96.3
2016-06-17T00:22:18.539Z,96.1
2016-06-17T00:22:28.523Z,96.3
2016-06-17T00:22:38.539Z,96
2016-06-17T00:22:48.523Z,96.6
2016-06-17T00:22:58.367Z,96.2
2016-06-17T00:23:08.606Z,95.8
2016-06-17T00:23:18.559Z,96
2016-06-17T00:23:28.840Z,96
2016-06-17T00:23:38.512Z,96
2016-06-17T00:23:48.496Z,96.1
2016-06-17T00:23:58.512Z,95.9
2016-06-17T00:24:08.499Z,96.3
2016-06-17T00:24:18.546Z,95.8
2016-06-17T00:24:28.530Z,96.3
2016-06-17T00:24:38.499Z,95.6
2016-06-17T00:24:48.484Z,96
2016-06-17T00:24:58.421Z,95.9
2016-06-17T00:25:08.488Z,95.8
2016-06-17T00:25:18.566Z,95.6
2016-06-17T00:25:28.628Z,95.9
2016-06-17T00:25:38.488Z,95.5
2016-06-17T00:25:48.534Z,95.7
2016-06-17T00:25:58.394Z,95.8
2016-06-17T00:26:08.475Z,95.9
2016-06-17T00:26:18.475Z,95.7
2016-06-17T00:26:28.459Z,95.7
2016-06-17T00:26:38.506Z,95.9
2016-06-17T00:26:48.287Z,95.9
2016-06-17T00:26:58.459Z,96
2016-06-17T00:27:08.307Z,95.4
2016-06-17T00:27:18.510Z,95.9
2016-06-17T00:27:28.448Z,96.1
2016-06-17T00:27:38.479Z,95.9
2016-06-17T00:27:48.307Z,96.3
2016-06-17T00:27:58.541Z,95.8
2016-06-17T00:28:08.310Z,96.6
2016-06-17T00:28:18.451Z,96.4
2016-06-17T00:28:28.435Z,96.8
2016-06-17T00:28:38.294Z,96.9
2016-06-17T00:28:48.435Z,96.7
2016-06-17T00:28:58.294Z,96.5
2016-06-17T00:29:08.282Z,96.5
2016-06-17T00:29:18.485Z,96.1
2016-06-17T00:29:28.422Z,96.4
2016-06-17T00:29:38.110Z,95.8
2016-06-17T00:29:48.438Z,96.1
2016-06-17T00:29:58.469Z,96.1
2016-06-17T00:30:08.286Z,96.4
2016-06-17T00:30:17.880Z,96.3
2016-06-17T00:30:28.411Z,96.3
2016-06-17T00:30:38.442Z,95.9
2016-06-17T00:30:48.411Z,96.2
2016-06-17T00:30:58.395Z,95.9
2016-06-17T00:31:08.242Z,96.6
2016-06-17T00:31:18.398Z,96.4
2016-06-17T00:31:28.398Z,96.1
2016-06-17T00:31:38.383Z,96
2016-06-17T00:31:48.383Z,95.9
2016-06-17T00:31:58.398Z,96.1
2016-06-17T00:32:08.371Z,96.2
2016-06-17T00:32:18.230Z,96.1
2016-06-17T00:32:28.371Z,96.2
2016-06-17T00:32:38.449Z,96.5
2016-06-17T00:32:48.199Z,96.5
2016-06-17T00:32:58.230Z,96.6
2016-06-17T00:33:08.358Z,96.2
2016-06-17T00:33:18.358Z,96.4
2016-06-17T00:33:28.358Z,96.6
2016-06-17T00:33:38.374Z,96.1
2016-06-17T00:33:48.343Z,95.9
2016-06-17T00:33:58.421Z,95.9
2016-06-17T00:34:08.175Z,96.1
2016-06-17T00:34:18.394Z,96.1
2016-06-17T00:34:28.190Z,96.1
2016-06-17T00:34:38.347Z,96
2016-06-17T00:34:48.331Z,95.8
2016-06-17T00:34:58.347Z,96.2
2016-06-17T00:35:08.334Z,96
2016-06-17T00:35:18.209Z,96.3
2016-06-17T00:35:28.318Z,96.5
2016-06-17T00:35:38.162Z,95.8
2016-06-17T00:35:48.334Z,95.9
2016-06-17T00:35:58.178Z,95.9
2016-06-17T00:36:08.166Z,96.1
2016-06-17T00:36:18.291Z,96.2
2016-06-17T00:36:28.307Z,96.1
2016-06-17T00:36:37.979Z,96.5
2016-06-17T00:36:48.307Z,96.9
2016-06-17T00:36:58.291Z,96.5
2016-06-17T00:37:08.294Z,97
2016-06-17T00:37:18.216Z,96.9
2016-06-17T00:37:28.279Z,96.7
2016-06-17T00:37:38.279Z,96.8
2016-06-17T00:37:48.122Z,96.3
2016-06-17T00:37:58.185Z,96.5
2016-06-17T00:38:08.111Z,96.2
2016-06-17T00:38:18.204Z,96.1
2016-06-17T00:38:28.283Z,96.2
2016-06-17T00:38:38.267Z,95.8
2016-06-17T00:38:48.126Z,96.3
2016-06-17T00:38:58.142Z,95.8
2016-06-17T00:39:08.254Z,95.4
2016-06-17T00:39:18.161Z,95.5
2016-06-17T00:39:28.254Z,95.6
2016-06-17T00:39:38.270Z,95.5
2016-06-17T00:39:47.942Z,95.5
2016-06-17T00:39:58.082Z,95.5
2016-06-17T00:40:08.242Z,95.3
2016-06-17T00:40:18.242Z,95.4
2016-06-17T00:40:28.242Z,95.4
2016-06-17T00:40:38.273Z,95.6
2016-06-17T00:40:48.070Z,95.4
2016-06-17T00:40:57.929Z,95.7
2016-06-17T00:41:08.214Z,95.9
2016-06-17T00:41:18.246Z,95.9
2016-06-17T00:41:27.902Z,95.8
2016-06-17T00:41:38.058Z,95.4
2016-06-17T00:41:48.214Z,96
2016-06-17T00:41:58.121Z,95.8
2016-06-17T00:42:08.218Z,95.7
2016-06-17T00:42:17.906Z,96.3
2016-06-17T00:42:28.218Z,96
2016-06-17T00:42:38.062Z,95.9
2016-06-17T00:42:48.234Z,96
2016-06-17T00:42:57.922Z,96.6
2016-06-17T00:43:08.206Z,96.2
2016-06-17T00:43:18.253Z,96.1
2016-06-17T00:43:28.206Z,96
2016-06-17T00:43:38.034Z,95.8
2016-06-17T00:43:48.018Z,95.9
2016-06-17T00:43:58.096Z,95.8
2016-06-17T00:44:08.162Z,96
2016-06-17T00:44:18.021Z,96
2016-06-17T00:44:28.162Z,95.8
2016-06-17T00:44:38.224Z,96
2016-06-17T00:44:48.162Z,96
2016-06-17T00:44:58.537Z,95.9
2016-06-17T00:45:08.149Z,95.9
2016-06-17T00:45:18.212Z,96
2016-06-17T00:45:27.993Z,95.9
2016-06-17T00:45:38.040Z,96.1
2016-06-17T00:45:48.134Z,96.4
2016-06-17T00:45:57.993Z,96.9
2016-06-17T00:46:08.263Z,96.9
2016-06-17T00:46:18.153Z,96.4
2016-06-17T00:46:27.841Z,96.6
2016-06-17T00:46:38.044Z,95.9
2016-06-17T00:46:47.966Z,96.1
2016-06-17T00:46:58.185Z,95.9
2016-06-17T00:47:08.110Z,96.6
2016-06-17T00:47:18.001Z,96.4
2016-06-17T00:47:28.126Z,96.4
2016-06-17T00:47:38.142Z,96.1
2016-06-17T00:47:48.110Z,96
2016-06-17T00:47:58.173Z,96
2016-06-17T00:48:08.113Z,96.1
2016-06-17T00:48:18.113Z,96.3
2016-06-17T00:48:28.098Z,96
2016-06-17T00:48:38.113Z,96.6
2016-06-17T00:48:48.113Z,96.5
2016-06-17T00:48:58.113Z,95.9
2016-06-17T00:49:07.945Z,95.9
2016-06-17T00:49:18.148Z,96.1
2016-06-17T00:49:27.913Z,96
2016-06-17T00:49:37.960Z,96.4
2016-06-17T00:49:47.820Z,95.9
2016-06-17T00:49:57.835Z,95.9
2016-06-17T00:50:08.088Z,96.2
2016-06-17T00:50:18.682Z,96
2016-06-17T00:50:28.073Z,96.3
2016-06-17T00:50:37.916Z,95.8
2016-06-17T00:50:47.901Z,95.9
2016-06-17T00:50:58.057Z,95.8
2016-06-17T00:51:08.044Z,95.8
2016-06-17T00:51:18.263Z,95.7
2016-06-17T00:51:28.044Z,95.6
2016-06-17T00:51:38.279Z,95.6
2016-06-17T00:51:48.044Z,95.8
2016-06-17T00:51:57.935Z,95.9
2016-06-17T00:52:08.047Z,95.9
2016-06-17T00:52:18.063Z,95.8
2016-06-17T00:52:28.032Z,96.1
2016-06-17T00:52:38.079Z,95.9
2016-06-17T00:52:48.032Z,96.5
2016-06-17T00:52:57.891Z,95.8
2016-06-17T00:53:08.019Z,96.3
2016-06-17T00:53:18.019Z,96.5
2016-06-17T00:53:28.019Z,96.4
2016-06-17T00:53:37.878Z,96.2
2016-06-17T00:53:47.988Z,96.6
2016-06-17T00:53:58.050Z,96.5
2016-06-17T00:54:07.835Z,95.9
2016-06-17T00:54:17.928Z,96.2
2016-06-17T00:54:28.053Z,96
2016-06-17T00:54:37.850Z,95.9
2016-06-17T00:54:48.006Z,96.2
2016-06-17T00:54:58.006Z,95.8
2016-06-17T00:55:07.822Z,95.5
2016-06-17T00:55:17.884Z,96.1
2016-06-17T00:55:27.994Z,95.6
2016-06-17T00:55:38.041Z,96
2016-06-17T00:55:47.963Z,95.7
2016-06-17T00:55:58.025Z,95.8
2016-06-17T00:56:07.809Z,95.5
2016-06-17T00:56:17.825Z,96.1
2016-06-17T00:56:27.981Z,96
2016-06-17T00:56:37.809Z,95.7
2016-06-17T00:56:47.825Z,95.8
2016-06-17T00:56:57.997Z,95.9
2016-06-17T00:57:07.954Z,95.9
2016-06-17T00:57:17.938Z,96.1
2016-06-17T00:57:27.798Z,96.1
2016-06-17T00:57:37.782Z,96
2016-06-17T00:57:47.938Z,96.2
2016-06-17T00:57:58.001Z,95.9
2016-06-17T00:58:07.957Z,96.6
2016-06-17T00:58:17.957Z,96.5
2016-06-17T00:58:27.769Z,96.4
2016-06-17T00:58:37.973Z,97
2016-06-17T00:58:47.926Z,96.9
2016-06-17T00:58:57.926Z,96.4
2016-06-17T00:59:07.914Z,97
2016-06-17T00:59:17.805Z,96.7
2016-06-17T00:59:27.758Z,96.7
2016-06-17T00:59:37.977Z,97.3
2016-06-17T00:59:47.914Z,97.5
2016-06-17T00:59:57.945Z,97.4
2016-06-17T01:00:07.886Z,97.5
2016-06-17T01:00:17.933Z,97.6
2016-06-17T01:00:27.901Z,97.2
2016-06-17T01:00:37.917Z,96.9
2016-06-17T01:00:47.730Z,96.8
2016-06-17T01:00:57.917Z,96.9
2016-06-17T01:01:07.733Z,96.9
2016-06-17T01:01:17.608Z,96.8
2016-06-17T01:01:27.873Z,96.9
2016-06-17T01:01:37.764Z,96.9
2016-06-17T01:01:47.873Z,96.9
2016-06-17T01:01:57.795Z,96.9
2016-06-17T01:02:07.862Z,97
2016-06-17T01:02:17.752Z,97.2
2016-06-17T01:02:27.565Z,96.8
2016-06-17T01:02:37.893Z,96.8
2016-06-17T01:02:48.096Z,97.2
2016-06-17T01:02:57.580Z,97.3
2016-06-17T01:03:07.552Z,97
2016-06-17T01:03:17.599Z,97.6
2016-06-17T01:03:27.849Z,98
2016-06-17T01:03:37.693Z,98.3
2016-06-17T01:03:47.740Z,97.9
2016-06-17T01:03:57.833Z,97.9
2016-06-17T01:04:07.680Z,97.7
2016-06-17T01:04:17.868Z,97.6
2016-06-17T01:04:27.836Z,97.9
2016-06-17T01:04:37.602Z,98.1
2016-06-17T01:04:47.508Z,98
2016-06-17T01:04:57.852Z,98
2016-06-17T01:05:07.809Z,98.4
2016-06-17T01:05:17.622Z,98.8
2016-06-17T01:05:27.668Z,98.9
2016-06-17T01:05:37.825Z,98.9
2016-06-17T01:05:47.653Z,99.3
2016-06-17T01:05:57.715Z,99.2
2016-06-17T01:06:07.626Z,99.1
2016-06-17T01:06:18.172Z,99.2
2016-06-17T01:06:27.657Z,99.5
2016-06-17T01:06:37.922Z,99.2
2016-06-17T01:06:47.766Z,99
2016-06-17T01:06:57.657Z,98.9
2016-06-17T01:07:08.035Z,98.5
2016-06-17T01:07:17.644Z,98.5
2016-06-17T01:07:27.785Z,98.5
2016-06-17T01:07:37.769Z,98
2016-06-17T01:07:47.488Z,97.9
2016-06-17T01:07:57.644Z,98.3
2016-06-17T01:08:07.617Z,97.9
2016-06-17T01:08:17.633Z,98
2016-06-17T01:08:27.633Z,97.7
2016-06-17T01:08:37.601Z,97.7
2016-06-17T01:08:47.601Z,97.3
2016-06-17T01:08:57.773Z,97.1
2016-06-17T01:09:07.761Z,97.3
2016-06-17T01:09:17.620Z,97.4
2016-06-17T01:09:27.776Z,97.4
2016-06-17T01:09:37.776Z,97.4
2016-06-17T01:09:47.573Z,97.6
2016-06-17T01:09:57.714Z,97.6
2016-06-17T01:10:07.717Z,97.3
2016-06-17T01:10:17.451Z,97.6
2016-06-17T01:10:27.420Z,97.5
2016-06-17T01:10:37.732Z,96.8
2016-06-17T01:10:47.717Z,96.6
2016-06-17T01:10:57.748Z,96.9
2016-06-17T01:11:07.721Z,97.1
2016-06-17T01:11:17.564Z,97.1
2016-06-17T01:11:27.705Z,96.8
2016-06-17T01:11:37.408Z,96.9
2016-06-17T01:11:47.689Z,96.9
2016-06-17T01:11:57.705Z,96.7
2016-06-17T01:12:07.708Z,96.9
2016-06-17T01:12:17.536Z,96.4
2016-06-17T01:12:27.692Z,96.6
2016-06-17T01:12:37.536Z,95.7
2016-06-17T01:12:47.521Z,96
2016-06-17T01:12:57.708Z,95.8
2016-06-17T01:13:07.711Z,95.8
2016-06-17T01:13:17.664Z,96.2
2016-06-17T01:13:27.695Z,96.4
2016-06-17T01:13:37.680Z,96.4
2016-06-17T01:13:47.680Z,96.9
2016-06-17T01:13:57.664Z,96.4
2016-06-17T01:14:07.668Z,96.4
2016-06-17T01:14:17.653Z,96.5
2016-06-17T01:14:27.653Z,96.2
2016-06-17T01:14:37.637Z,96.5
2016-06-17T01:14:47.496Z,96.8
2016-06-17T01:14:57.528Z,97.1
2016-06-17T01:15:07.516Z,96.8
2016-06-17T01:15:17.657Z,96.9
2016-06-17T01:15:27.641Z,96.9
2016-06-17T01:15:37.625Z,96.9
2016-06-17T01:15:47.657Z,96.8
2016-06-17T01:15:57.391Z,96.6
2016-06-17T01:16:07.472Z,96.8
2016-06-17T01:16:17.738Z,97
2016-06-17T01:16:27.472Z,96.4
2016-06-17T01:16:37.378Z,96.3
2016-06-17T01:16:47.613Z,96.4
2016-06-17T01:16:57.488Z,96.5
2016-06-17T01:17:07.600Z,96.4
2016-06-17T01:17:17.631Z,96.1
2016-06-17T01:17:27.319Z,96.2
2016-06-17T01:17:37.616Z,96.2
2016-06-17T01:17:47.600Z,96.3
2016-06-17T01:17:57.475Z,96.5
2016-06-17T01:18:07.448Z,96.4
2016-06-17T01:18:18.292Z,96.5
2016-06-17T01:18:27.463Z,95.9
2016-06-17T01:18:37.479Z,95.9
2016-06-17T01:18:47.276Z,96.3
2016-06-17T01:18:57.417Z,95.9
2016-06-17T01:19:07.295Z,95.8
2016-06-17T01:19:17.560Z,95.9
2016-06-17T01:19:27.451Z,96.1
2016-06-17T01:19:37.279Z,96
2016-06-17T01:19:47.576Z,95.9
2016-06-17T01:19:57.107Z,96.2
2016-06-17T01:20:07.424Z,95.4
2016-06-17T01:20:17.627Z,95.9
2016-06-17T01:20:27.408Z,95.7
2016-06-17T01:20:37.549Z,95.8
2016-06-17T01:20:47.283Z,95.8
2016-06-17T01:20:57.564Z,95.8
2016-06-17T01:21:07.381Z,95.8
2016-06-17T01:21:17.396Z,95.6
2016-06-17T01:21:27.537Z,95.7
2016-06-17T01:21:37.412Z,95.8
2016-06-17T01:21:47.553Z,95.6
2016-06-17T01:21:57.521Z,96.3
2016-06-17T01:22:07.523Z,96.1
2016-06-17T01:22:17.367Z,95.5
2016-06-17T01:22:27.586Z,96.3
2016-06-17T01:22:37.508Z,95.5
2016-06-17T01:22:47.523Z,96.6
2016-06-17T01:22:57.555Z,96.2
2016-06-17T01:23:07.528Z,96.2
2016-06-17T01:23:17.513Z,95.9
2016-06-17T01:23:27.513Z,96.2
2016-06-17T01:23:37.372Z,96.1
2016-06-17T01:23:47.575Z,96.1
2016-06-17T01:23:57.497Z,96.4
2016-06-17T01:24:07.358Z,96
2016-06-17T01:24:17.499Z,96
2016-06-17T01:24:27.577Z,96.2
2016-06-17T01:24:37.530Z,96.2
2016-06-17T01:24:47.483Z,95.9
2016-06-17T01:24:57.468Z,95.9
2016-06-17T01:25:07.550Z,95.9
2016-06-17T01:25:17.487Z,95.9
2016-06-17T01:25:27.706Z,96.1
2016-06-17T01:25:37.347Z,96.1
2016-06-17T01:25:47.316Z,96.1
2016-06-17T01:25:57.222Z,96.1
2016-06-17T01:26:07.304Z,96.1
2016-06-17T01:26:17.460Z,96.1
2016-06-17T01:26:27.695Z,95.9
2016-06-17T01:26:37.288Z,96.4
2016-06-17T01:26:47.445Z,96
2016-06-17T01:26:57.445Z,96.1
2016-06-17T01:27:07.291Z,95.9
2016-06-17T01:27:17.479Z,96.3
2016-06-17T01:27:27.307Z,96.3
2016-06-17T01:27:37.448Z,95.9
2016-06-17T01:27:47.479Z,96
2016-06-17T01:27:57.291Z,96
2016-06-17T01:28:07.279Z,96.1
2016-06-17T01:28:17.435Z,95.8
2016-06-17T01:28:27.482Z,95.9
2016-06-17T01:28:37.451Z,95.9
2016-06-17T01:28:47.419Z,96
2016-06-17T01:28:57.419Z,96
2016-06-17T01:29:07.423Z,95.9
2016-06-17T01:29:17.408Z,95.9
2016-06-17T01:29:27.267Z,96
2016-06-17T01:29:37.267Z,95.9
2016-06-17T01:29:47.517Z,96
2016-06-17T01:29:57.423Z,96
2016-06-17T01:30:07.411Z,95.5
2016-06-17T01:30:17.395Z,95.4
2016-06-17T01:30:27.239Z,95.3
2016-06-17T01:30:37.395Z,95.4
2016-06-17T01:30:47.395Z,95.5
2016-06-17T01:30:57.254Z,95.3
2016-06-17T01:31:07.618Z,95.5
2016-06-17T01:31:17.368Z,95.3
2016-06-17T01:31:27.243Z,95.4
2016-06-17T01:31:37.212Z,95.5
2016-06-17T01:31:47.368Z,95.9
2016-06-17T01:31:57.227Z,95.9
2016-06-17T01:32:07.200Z,95.9
2016-06-17T01:32:17.356Z,95.9
2016-06-17T01:32:27.403Z,95.6
2016-06-17T01:32:37.356Z,95.4
2016-06-17T01:32:47.059Z,95.3
2016-06-17T01:32:57.403Z,95.6
2016-06-17T01:33:07.343Z,95.5
2016-06-17T01:33:17.202Z,95.4
2016-06-17T01:33:27.374Z,95.6
2016-06-17T01:33:37.233Z,94.9
2016-06-17T01:33:47.186Z,95
2016-06-17T01:33:57.327Z,95
2016-06-17T01:34:07.331Z,95
2016-06-17T01:34:17.315Z,95
2016-06-17T01:34:27.347Z,94.9
2016-06-17T01:34:37.331Z,95.6
2016-06-17T01:34:47.331Z,95.6
2016-06-17T01:34:57.331Z,95.4
2016-06-17T01:35:07.335Z,95.9
2016-06-17T01:35:17.147Z,95.8
2016-06-17T01:35:27.147Z,95.9
2016-06-17T01:35:37.538Z,95.8
2016-06-17T01:35:47.382Z,95.7
2016-06-17T01:35:57.147Z,95.4
2016-06-17T01:36:07.136Z,95.5
2016-06-17T01:36:17.026Z,95.8
2016-06-17T01:36:27.323Z,95.6
2016-06-17T01:36:37.120Z,95.9
2016-06-17T01:36:47.308Z,95.8
2016-06-17T01:36:57.292Z,95.9
2016-06-17T01:37:07.326Z,95.9
2016-06-17T01:37:17.123Z,95.9
2016-06-17T01:37:27.123Z,95.6
2016-06-17T01:37:37.123Z,95.7
2016-06-17T01:37:47.264Z,95.9
2016-06-17T01:37:57.248Z,96.1
2016-06-17T01:38:07.143Z,96
2016-06-17T01:38:17.252Z,95.9
2016-06-17T01:38:26.940Z,95.8
2016-06-17T01:38:37.658Z,95.8
2016-06-17T01:38:47.096Z,95.9
2016-06-17T01:38:57.268Z,96
2016-06-17T01:39:07.098Z,95.6
2016-06-17T01:39:17.254Z,96.2
2016-06-17T01:39:27.489Z,95.7
2016-06-17T01:39:37.098Z,95.8
2016-06-17T01:39:47.285Z,95.9
2016-06-17T01:39:57.239Z,95.9
2016-06-17T01:40:07.227Z,95.4
2016-06-17T01:40:17.086Z,95.9
2016-06-17T01:40:26.930Z,96
2016-06-17T01:40:37.211Z,95.7
2016-06-17T01:40:47.196Z,96
2016-06-17T01:40:57.227Z,96.1
2016-06-17T01:41:07.215Z,96.6
2016-06-17T01:41:17.231Z,95.9
2016-06-17T01:41:27.200Z,96.1
2016-06-17T01:41:37.200Z,96.2
2016-06-17T01:41:47.262Z,96
2016-06-17T01:41:57.184Z,96.1
2016-06-17T01:42:07.062Z,96
2016-06-17T01:42:17.203Z,95.8
2016-06-17T01:42:27.046Z,96.4
2016-06-17T01:42:37.187Z,96.8
2016-06-17T01:42:47.187Z,96.3
2016-06-17T01:42:57.078Z,96.8
2016-06-17T01:43:06.879Z,96.9
2016-06-17T01:43:17.191Z,97.2
2016-06-17T01:43:27.019Z,96.9
2016-06-17T01:43:37.175Z,96.9
2016-06-17T01:43:47.175Z,96.9
2016-06-17T01:43:57.160Z,96.6
2016-06-17T01:44:07.178Z,96.9
2016-06-17T01:44:17.163Z,96.9
2016-06-17T01:44:26.991Z,96.8
2016-06-17T01:44:37.007Z,96.9
2016-06-17T01:44:47.163Z,97.1
2016-06-17T01:44:56.850Z,97.1
2016-06-17T01:45:06.994Z,96.9
2016-06-17T01:45:17.135Z,96.5
2016-06-17T01:45:27.135Z,96.6
2016-06-17T01:45:36.978Z,96.3
2016-06-17T01:45:46.978Z,96.6
2016-06-17T01:45:57.135Z,96.4
2016-06-17T01:46:06.967Z,96
2016-06-17T01:46:17.123Z,96.3
2016-06-17T01:46:26.982Z,96.5
2016-06-17T01:46:36.998Z,95.8
2016-06-17T01:46:47.107Z,95.9
2016-06-17T01:46:57.014Z,95.9
2016-06-17T01:47:07.174Z,96
2016-06-17T01:47:17.111Z,96.1
2016-06-17T01:47:26.971Z,96
2016-06-17T01:47:37.111Z,96.2
2016-06-17T01:47:47.158Z,96.1
2016-06-17T01:47:57.080Z,96.1
2016-06-17T01:48:07.098Z,95.9
2016-06-17T01:48:16.832Z,96.5
2016-06-17T01:48:27.395Z,96.5
2016-06-17T01:48:36.926Z,96.5
2016-06-17T01:48:47.098Z,96.7
2016-06-17T01:48:57.082Z,96.7
2016-06-17T01:49:07.039Z,96.9
2016-06-17T01:49:17.070Z,96.9
2016-06-17T01:49:27.117Z,96.8
2016-06-17T01:49:37.070Z,96.7
2016-06-17T01:49:46.899Z,97.3
2016-06-17T01:49:57.289Z,97.3
2016-06-17T01:50:06.762Z,96.9
2016-06-17T01:50:17.059Z,97
2016-06-17T01:50:26.903Z,96.7
2016-06-17T01:50:36.903Z,96.9
2016-06-17T01:50:46.903Z,96.9
2016-06-17T01:50:56.887Z,96.9
2016-06-17T01:51:07.062Z,96.9
2016-06-17T01:51:17.031Z,96.8
2016-06-17T01:51:27.062Z,96.9
2016-06-17T01:51:37.046Z,96.2
2016-06-17T01:51:47.077Z,96.5
2016-06-17T01:51:56.906Z,96.7
2016-06-17T01:52:07.019Z,96.9
2016-06-17T01:52:16.878Z,96.9
2016-06-17T01:52:26.706Z,97.1
2016-06-17T01:52:37.003Z,96.7
2016-06-17T01:52:47.003Z,96.7
2016-06-17T01:52:56.910Z,97.4
2016-06-17T01:53:07.084Z,97.3
2016-06-17T01:53:16.866Z,97.6
2016-06-17T01:53:26.553Z,98
2016-06-17T01:53:36.850Z,97.9
2016-06-17T01:53:47.053Z,98
2016-06-17T01:53:56.850Z,97.9
2016-06-17T01:54:07.025Z,97.9
2016-06-17T01:54:16.994Z,98.1
2016-06-17T01:54:26.837Z,98.2
2016-06-17T01:54:36.978Z,98
2016-06-17T01:54:46.853Z,98
2016-06-17T01:54:56.978Z,97.9
2016-06-17T01:55:06.998Z,97.2
2016-06-17T01:55:16.826Z,97.3
2016-06-17T01:55:27.263Z,97.3
2016-06-17T01:55:36.982Z,97.2
2016-06-17T01:55:46.966Z,96.7
2016-06-17T01:55:56.982Z,96.8
2016-06-17T01:56:06.816Z,96.9
2016-06-17T01:56:16.972Z,96.9
2016-06-17T01:56:26.957Z,96.6
2016-06-17T01:56:37.144Z,96.8
2016-06-17T01:56:46.972Z,97
2016-06-17T01:56:56.972Z,96.8
2016-06-17T01:57:06.946Z,96.4
2016-06-17T01:57:16.946Z,96.7
2016-06-17T01:57:27.024Z,97
2016-06-17T01:57:36.931Z,96.9
2016-06-17T01:57:46.634Z,96.9
2016-06-17T01:57:56.790Z,96.5
2016-06-17T01:58:06.997Z,96.9
2016-06-17T01:58:16.919Z,96.6
2016-06-17T01:58:26.950Z,96.9
2016-06-17T01:58:36.919Z,97
2016-06-17T01:58:46.778Z,96.9
2016-06-17T01:58:56.794Z,97.2
2016-06-17T01:59:06.924Z,96.9
2016-06-17T01:59:16.908Z,97.3
2016-06-17T01:59:26.924Z,97.3
2016-06-17T01:59:36.783Z,97.1
2016-06-17T01:59:46.924Z,97.7
2016-06-17T01:59:56.924Z,97.9
2016-06-17T02:00:06.616Z,97.8
2016-06-17T02:00:16.913Z,97.6
2016-06-17T02:00:26.945Z,97.9
2016-06-17T02:00:36.882Z,97
2016-06-17T02:00:46.929Z,97.1
2016-06-17T02:00:56.788Z,97.3
2016-06-17T02:01:06.792Z,97.4
2016-06-17T02:01:16.730Z,97.3
2016-06-17T02:01:27.027Z,97.1
2016-06-17T02:01:37.074Z,96.7
2016-06-17T02:01:46.917Z,96.8
2016-06-17T02:01:56.714Z,96.9
2016-06-17T02:02:06.890Z,96.4
2016-06-17T02:02:16.859Z,96.6
2016-06-17T02:02:26.890Z,96.9
2016-06-17T02:02:36.859Z,96.5
2016-06-17T02:02:46.703Z,97.1
2016-06-17T02:02:56.703Z,97
2016-06-17T02:03:06.894Z,96.6
2016-06-17T02:03:16.582Z,97
2016-06-17T02:03:26.847Z,96.7
2016-06-17T02:03:37.222Z,97.5
2016-06-17T02:03:46.863Z,97.5
2016-06-17T02:03:56.691Z,97.4
2016-06-17T02:04:06.835Z,97.2
2016-06-17T02:04:16.835Z,97
2016-06-17T02:04:26.819Z,97.9
2016-06-17T02:04:36.835Z,97.7
2016-06-17T02:04:46.866Z,97.9
2016-06-17T02:04:56.819Z,97.8
2016-06-17T02:05:06.854Z,97.7
2016-06-17T02:05:16.823Z,97.3
2016-06-17T02:05:26.807Z,97.1
2016-06-17T02:05:36.823Z,97
2016-06-17T02:05:46.823Z,97.1
2016-06-17T02:05:56.823Z,97.4
2016-06-17T02:06:06.858Z,97.2
2016-06-17T02:06:16.811Z,97.1
2016-06-17T02:06:26.811Z,97.1
2016-06-17T02:06:36.796Z,97.2
2016-06-17T02:06:46.827Z,97.3
2016-06-17T02:06:56.796Z,97.1
2016-06-17T02:07:06.722Z,97.2
2016-06-17T02:07:16.815Z,97.3
2016-06-17T02:07:26.784Z,97.3
2016-06-17T02:07:36.784Z,97.4
2016-06-17T02:07:46.768Z,97.2
2016-06-17T02:07:56.784Z,97.4
2016-06-17T02:08:06.772Z,97.3
2016-06-17T02:08:16.772Z,97
2016-06-17T02:08:26.757Z,97.6
2016-06-17T02:08:36.772Z,98.3
2016-06-17T02:08:46.772Z,98.1
2016-06-17T02:08:56.772Z,97.9
2016-06-17T02:09:06.775Z,98.1
2016-06-17T02:09:16.760Z,98.1
2016-06-17T02:09:26.760Z,98
2016-06-17T02:09:36.744Z,98.3
2016-06-17T02:09:46.729Z,97.9
2016-06-17T02:09:56.729Z,97.9
2016-06-17T02:10:06.779Z,98
2016-06-17T02:10:16.748Z,98.1
2016-06-17T02:10:26.717Z,97.7
2016-06-17T02:10:36.733Z,97.8
2016-06-17T02:10:46.811Z,97.6
2016-06-17T02:10:56.733Z,97.7
2016-06-17T02:11:06.721Z,97.7
2016-06-17T02:11:16.721Z,98.1
2016-06-17T02:11:26.737Z,97.7
2016-06-17T02:11:37.002Z,97.7
2016-06-17T02:11:46.549Z,97.8
2016-06-17T02:11:56.549Z,97.1
2016-06-17T02:12:06.709Z,97.2
2016-06-17T02:12:16.725Z,97.1
2016-06-17T02:12:26.553Z,97.3
2016-06-17T02:12:36.694Z,96.8
2016-06-17T02:12:46.678Z,97.1
2016-06-17T02:12:56.709Z,97.2
2016-06-17T02:13:06.524Z,97.3
2016-06-17T02:13:16.680Z,97.3
2016-06-17T02:13:26.930Z,97.3
2016-06-17T02:13:36.680Z,97.4
2016-06-17T02:13:46.680Z,97.6
2016-06-17T02:13:56.368Z,97
2016-06-17T02:14:06.497Z,97.4